Time;durP1;ratioP1;P1;durP2;ratioP2;P2;SDS_P1;SDS_P2;PMS_P1;PMS_P2;Temp;Humidity;BMP_temperature;BMP_pressure;BME280_temperature;BME280_humidity;BME280_pressure;Samples;Min_cycle;Max_cycle;Signal;HPM_P1;HPM_P2
2022/04/26 03:36:08;;;;;;;25.10;23.05;;;;;;;7.75;100.00;100781.22;4979620;28;20546;-91
2022/04/26 03:38:36;;;;;;;22.77;21.20;;;;;;;7.87;100.00;100773.63;4979373;28;20050;-91
2022/04/26 03:41:03;;;;;;;23.35;21.58;;;;;;;8.03;100.00;100778.66;4984040;28;20049;-91
2022/04/26 03:43:30;;;;;;;23.38;22.02;;;;;;;8.02;100.00;100787.63;4982061;28;20184;-93
2022/04/26 03:45:59;;;;;;;22.45;20.95;;;;;;;8.02;100.00;100784.16;4985581;28;20054;-92
2022/04/26 03:48:26;;;;;;;25.92;23.20;;;;;;;8.24;100.00;100784.97;4988489;28;20431;-91
2022/04/26 03:50:53;;;;;;;23.13;21.30;;;;;;;8.19;100.00;100785.53;4987023;28;20057;-91
2022/04/26 03:53:21;;;;;;;23.40;21.70;;;;;;;8.29;100.00;100794.97;4986076;28;20061;-91
2022/04/26 03:55:48;;;;;;;23.33;21.85;;;;;;;8.32;100.00;100798.09;4983535;28;20423;-91
2022/04/26 03:58:17;;;;;;;22.98;21.45;;;;;;;8.32;100.00;100800.75;4982229;28;20051;-91
2022/04/26 04:00:44;;;;;;;23.75;22.17;;;;;;;8.39;100.00;100799.00;4984661;28;20054;-91
2022/04/26 04:03:12;;;;;;;24.33;22.23;;;;;;;8.13;100.00;100796.06;4981386;28;20050;-90
2022/04/26 04:05:42;;;;;;;39.10;35.17;;;;;;;8.48;100.00;100795.22;4982667;28;20051;-91
2022/04/26 04:08:09;;;;;;;42.40;38.10;;;;;;;8.74;100.00;100801.72;4985661;28;20408;-91
2022/04/26 04:10:37;;;;;;;24.52;22.40;;;;;;;8.88;100.00;100794.72;4981760;28;20054;-91
2022/04/26 04:13:04;;;;;;;25.67;24.05;;;;;;;9.00;100.00;100802.94;4976016;28;20081;-91
2022/04/26 04:15:31;;;;;;;24.35;22.65;;;;;;;8.99;100.00;100802.13;4986068;28;20043;-92
2022/04/26 04:17:58;;;;;;;24.77;22.58;;;;;;;9.49;100.00;100807.31;4984598;28;20130;-91
2022/04/26 04:20:29;;;;;;;24.73;22.50;;;;;;;9.51;100.00;100803.47;4977342;28;20054;-92
2022/04/26 04:22:56;;;;;;;22.70;21.13;;;;;;;9.61;100.00;100808.41;4982263;28;20042;-91
2022/04/26 04:25:23;;;;;;;24.13;22.15;;;;;;;9.85;100.00;100807.06;4987107;28;20050;-90
2022/04/26 04:27:52;;;;;;;26.23;24.25;;;;;;;9.84;100.00;100808.91;4981965;28;20042;-90
2022/04/26 04:30:19;;;;;;;25.70;23.98;;;;;;;10.14;100.00;100811.25;4981490;28;20100;-90
2022/04/26 04:32:46;;;;;;;27.13;25.50;;;;;;;10.44;100.00;100814.41;4985632;28;20054;-90
2022/04/26 04:35:14;;;;;;;33.67;31.08;;;;;;;10.40;100.00;100818.47;4978917;28;20049;-91
2022/04/26 04:37:41;;;;;;;29.10;27.27;;;;;;;10.37;100.00;100824.16;4986831;28;20039;-89
2022/04/26 04:40:10;;;;;;;28.13;26.35;;;;;;;10.39;100.00;100819.50;4985028;28;20495;-91
2022/04/26 04:42:36;;;;;;;25.08;23.35;;;;;;;10.41;100.00;100820.13;4981550;28;20054;-91
2022/04/26 04:45:09;;;;;;;24.88;23.50;;;;;;;10.40;100.00;100815.00;4984395;28;20050;-90
2022/04/26 04:47:36;;;;;;;23.30;21.63;;;;;;;10.75;100.00;100816.44;4983426;28;20057;-91
2022/04/26 04:50:03;;;;;;;23.88;22.35;;;;;;;10.61;100.00;100814.00;4987249;28;20078;-90
2022/04/26 04:52:29;;;;;;;24.17;22.30;;;;;;;10.95;100.00;100818.28;4987032;28;20050;-91
2022/04/26 04:54:56;;;;;;;23.00;21.55;;;;;;;10.96;100.00;100817.28;4984738;28;20049;-90
2022/04/26 04:57:24;;;;;;;23.77;22.02;;;;;;;11.26;100.00;100817.63;4988298;28;20061;-91
2022/04/26 04:59:51;;;;;;;24.10;22.50;;;;;;;11.21;100.00;100820.91;4989435;28;20054;-92
2022/04/26 05:02:20;;;;;;;24.08;22.77;;;;;;;11.80;100.00;100823.59;4986274;28;20056;-92
2022/04/26 05:04:47;;;;;;;23.98;22.35;;;;;;;11.79;100.00;100825.44;4988438;28;20055;-92
2022/04/26 05:07:14;;;;;;;23.80;22.30;;;;;;;11.99;100.00;100828.06;4985785;28;20087;-89
2022/04/26 05:09:44;;;;;;;25.52;23.70;;;;;;;12.27;100.00;100825.03;4989710;28;20148;-91
2022/04/26 05:12:12;;;;;;;25.55;23.80;;;;;;;12.76;100.00;100820.78;4991663;28;20526;-89
2022/04/26 05:14:39;;;;;;;25.02;23.23;;;;;;;13.01;100.00;100823.44;4990630;28;20050;-89
2022/04/26 05:17:10;;;;;;;27.20;24.90;;;;;;;12.98;100.00;100831.88;4976926;28;20113;-91
2022/04/26 05:19:38;;;;;;;26.38;24.58;;;;;;;13.07;100.00;100829.72;4974296;28;20061;-92
2022/04/26 05:22:11;;;;;;;25.30;23.42;;;;;;;13.32;100.00;100837.75;4988982;28;20134;-90
2022/04/26 05:27:28;;;;;;;25.75;24.00;;;;;;;13.28;100.00;100837.38;4988662;28;20570;-90
2022/04/26 05:29:56;;;;;;;24.02;22.40;;;;;;;13.66;100.00;100839.00;4982077;28;20061;-89
2022/04/26 05:32:27;;;;;;;24.73;23.23;;;;;;;13.90;100.00;100839.16;4981527;28;20424;-89
2022/04/26 05:35:02;;;;;;;23.52;21.92;;;;;;;14.02;100.00;100840.00;4990437;28;20043;-90
2022/04/26 05:37:31;;;;;;;23.67;22.38;;;;;;;14.40;100.00;100855.72;4990158;28;20058;-90
2022/04/26 05:40:02;;;;;;;23.95;22.15;;;;;;;14.36;100.00;100856.41;4983446;28;20427;-90
2022/04/26 05:42:33;;;;;;;26.25;24.42;;;;;;;14.65;100.00;100852.09;4980224;28;20050;-90
2022/04/26 05:45:00;;;;;;;24.38;22.88;;;;;;;14.65;100.00;100862.78;4992407;28;20557;-89
2022/04/26 05:47:28;;;;;;;25.85;24.10;;;;;;;14.85;100.00;100859.78;4993235;28;20054;-90
2022/04/26 05:50:03;;;;;;;24.55;23.08;;;;;;;15.08;100.00;100862.50;4992549;28;20073;-91
2022/04/26 05:52:31;;;;;;;25.92;24.42;;;;;;;15.35;100.00;100856.69;4983842;28;20423;-89
2022/04/26 05:55:04;;;;;;;26.42;24.92;;;;;;;15.28;100.00;100856.81;4984306;28;20548;-90
2022/04/26 05:57:32;;;;;;;26.27;24.70;;;;;;;15.51;100.00;100850.59;4989198;28;20128;-90
2022/04/26 05:59:59;;;;;;;25.92;24.45;;;;;;;15.71;100.00;100852.13;4980919;28;20054;-89
2022/04/26 06:02:25;;;;;;;24.50;23.10;;;;;;;15.86;100.00;100846.28;4987026;28;20144;-88
2022/04/26 06:04:52;;;;;;;25.73;24.23;;;;;;;15.96;100.00;100854.50;4983164;28;20043;-90
2022/04/26 06:07:21;;;;;;;25.63;24.23;;;;;;;15.97;100.00;100856.09;4989754;28;20047;-89
2022/04/26 06:09:50;;;;;;;27.63;26.08;;;;;;;16.45;100.00;100863.72;4981014;28;20138;-90
2022/04/26 06:12:16;;;;;;;25.92;24.50;;;;;;;16.47;100.00;100858.13;4989502;28;20133;-90
2022/04/26 06:14:43;;;;;;;25.80;24.20;;;;;;;16.54;100.00;100857.97;4987719;28;20046;-89
2022/04/26 06:17:10;;;;;;;26.05;24.55;;;;;;;16.40;100.00;100852.91;4988149;28;20129;-89
2022/04/26 06:19:37;;;;;;;26.85;25.05;;;;;;;16.45;100.00;100852.19;4992862;28;20050;-90
2022/04/26 06:22:04;;;;;;;28.70;26.80;;;;;;;16.45;100.00;100849.50;4988574;28;20069;-90
2022/04/26 06:24:32;;;;;;;27.98;26.30;;;;;;;16.94;100.00;100856.00;4987198;28;20054;-89
2022/04/26 06:26:59;;;;;;;27.88;26.17;;;;;;;16.99;100.00;100859.81;4987716;28;20105;-90
2022/04/26 06:29:26;;;;;;;29.50;27.90;;;;;;;17.14;100.00;100860.84;4988036;28;20057;-89
2022/04/26 06:31:53;;;;;;;27.38;25.58;;;;;;;17.29;100.00;100862.13;4988329;28;20078;-90
2022/04/26 06:34:20;;;;;;;28.02;26.55;;;;;;;17.13;100.00;100866.47;4992633;28;20197;-90
2022/04/26 06:36:47;;;;;;;27.45;25.90;;;;;;;17.31;100.00;100866.19;4987811;28;20464;-89
2022/04/26 06:39:14;;;;;;;27.88;26.40;;;;;;;17.59;100.00;100869.78;4986957;28;20144;-89
2022/04/26 06:41:42;;;;;;;27.63;25.90;;;;;;;17.59;100.00;100870.59;4978067;28;20046;-90
2022/04/26 06:44:09;;;;;;;28.70;26.83;;;;;;;17.46;100.00;100875.50;4983400;28;20059;-89
2022/04/26 06:46:36;;;;;;;29.45;27.75;;;;;;;17.55;100.00;100866.78;4979913;28;20428;-88
2022/04/26 06:49:05;;;;;;;27.50;25.75;;;;;;;17.38;100.00;100876.75;4986379;28;20057;-90
2022/04/26 06:51:33;;;;;;;28.20;26.40;;;;;;;17.51;100.00;100862.97;4985463;28;20054;-90
2022/04/26 06:54:01;;;;;;;29.60;28.00;;;;;;;17.75;100.00;100860.84;4982195;28;20042;-90
2022/04/26 06:56:29;;;;;;;29.33;27.48;;;;;;;17.53;100.00;100863.53;4982243;28;20047;-91
2022/04/26 06:59:01;;;;;;;31.48;29.77;;;;;;;17.42;100.00;100860.94;4977194;28;20055;-91
2022/04/26 07:01:27;;;;;;;29.20;27.60;;;;;;;17.31;100.00;100860.03;4977087;28;20083;-91
2022/04/26 07:03:54;;;;;;;32.28;30.60;;;;;;;17.44;100.00;100864.22;4980300;28;20082;-92
2022/04/26 07:06:21;;;;;;;33.47;31.77;;;;;;;17.62;100.00;100859.34;4988619;28;20050;-91
2022/04/26 07:08:51;;;;;;;31.15;29.50;;;;;;;17.75;100.00;100862.72;4986748;28;20409;-91
2022/04/26 07:11:18;;;;;;;31.48;29.30;;;;;;;17.90;100.00;100872.88;4986676;28;20425;-92
2022/04/26 07:13:45;;;;;;;36.90;35.05;;;;;;;17.94;100.00;100876.69;4986779;28;20409;-92
2022/04/26 07:16:13;;;;;;;35.55;33.75;;;;;;;17.98;100.00;100880.50;4987044;28;20046;-91
2022/04/26 07:18:40;;;;;;;35.33;33.42;;;;;;;18.28;100.00;100880.03;4993397;28;20060;-91
2022/04/26 07:21:10;;;;;;;35.83;34.10;;;;;;;17.99;100.00;100874.06;4989005;28;20082;-90
2022/04/26 07:23:39;;;;;;;36.65;34.67;;;;;;;17.97;100.00;100877.00;4986321;28;20043;-91
2022/04/26 07:26:06;;;;;;;37.38;35.58;;;;;;;18.61;100.00;100880.88;4986881;28;20126;-91
2022/04/26 07:28:33;;;;;;;38.30;36.30;;;;;;;18.43;100.00;100882.88;4986667;28;20058;-91
2022/04/26 07:31:00;;;;;;;39.28;37.22;;;;;;;18.45;100.00;100878.03;4988414;28;20530;-92
2022/04/26 07:36:34;;;;;;;37.47;35.38;;;;;;;18.85;98.86;100889.44;4926713;29;20103;-91
2022/04/26 07:39:01;;;;;;;40.13;38.03;;;;;;;18.71;91.56;100887.16;4922164;29;20066;-91
2022/04/26 07:41:28;;;;;;;38.75;36.55;;;;;;;18.84;89.38;100896.72;4953163;28;20058;-92
2022/04/26 07:43:55;;;;;;;38.00;35.90;;;;;;;18.99;94.84;100887.97;4983337;28;20057;-91
2022/04/26 07:46:22;;;;;;;38.78;36.58;;;;;;;19.02;88.73;100887.44;4982832;28;20148;-92
2022/04/26 07:48:51;;;;;;;33.85;31.70;;;;;;;19.50;91.21;100895.56;4987779;28;20050;-91
2022/04/26 07:51:19;;;;;;;35.55;33.75;;;;;;;18.96;89.20;100900.03;4981874;28;20042;-91
2022/04/26 07:53:46;;;;;;;38.40;36.60;;;;;;;19.19;97.77;100901.56;4982075;28;20073;-90
2022/04/26 07:56:14;;;;;;;37.95;35.90;;;;;;;19.52;96.84;100910.41;4981534;28;20508;-90
2022/04/26 07:58:40;;;;;;;40.55;38.63;;;;;;;19.35;87.97;100902.47;4982365;28;20081;-90
2022/04/26 08:01:10;;;;;;;40.15;38.25;;;;;;;19.52;86.00;100901.50;4982353;28;20055;-90
2022/04/26 08:03:36;;;;;;;39.28;37.28;;;;;;;19.72;89.18;100904.31;4979702;28;20555;-91
2022/04/26 08:06:05;;;;;;;38.92;36.92;;;;;;;19.95;92.47;100903.09;4982317;28;20051;-91
2022/04/26 08:08:32;;;;;;;37.03;35.03;;;;;;;19.83;88.85;100897.91;4982715;28;20054;-92
2022/04/26 08:11:03;;;;;;;43.78;41.58;;;;;;;19.89;85.50;100898.75;4983134;28;20058;-91
2022/04/26 08:13:30;;;;;;;38.45;36.58;;;;;;;20.08;87.80;100901.78;4975534;28;20057;-91
2022/04/26 08:15:57;;;;;;;40.50;38.50;;;;;;;20.62;80.69;100900.59;4981447;28;20038;-91
2022/04/26 08:18:24;;;;;;;39.22;37.15;;;;;;;20.03;80.22;100909.84;4979286;28;20050;-91
2022/04/26 08:20:50;;;;;;;28.70;27.30;;;;;;;20.30;84.97;100906.97;4984063;28;20058;-90
2022/04/26 08:23:19;;;;;;;40.60;38.80;;;;;;;19.60;89.18;100901.81;4983805;28;20067;-91
2022/04/26 08:28:30;;;;;;;42.60;40.35;;;;;;;19.98;81.94;100902.56;4983536;28;20433;-90
2022/04/26 08:30:57;;;;;;;47.90;45.67;;;;;;;20.16;86.03;100906.66;4982112;28;20431;-89
2022/04/26 08:33:24;;;;;;;45.92;43.67;;;;;;;20.98;78.99;100907.63;4984038;28;20051;-89
2022/04/26 08:35:51;;;;;;;48.85;46.53;;;;;;;20.38;77.47;100900.25;4985025;28;20104;-89
2022/04/26 08:38:20;;;;;;;48.50;46.03;;;;;;;19.75;75.68;100892.22;4985403;28;20042;-89
2022/04/26 08:40:50;;;;;;;45.97;43.78;;;;;;;19.84;74.89;100896.84;4978964;28;20057;-88
2022/04/26 08:43:18;;;;;;;38.50;36.55;;;;;;;20.61;74.07;100897.09;4977815;28;20057;-90
2022/04/26 08:45:47;;;;;;;42.13;39.88;;;;;;;21.25;74.85;100893.81;4980586;28;20113;-88
2022/04/26 08:51:03;;;;;;;28.92;27.48;;;;;;;20.66;68.98;100899.75;4979508;28;20054;-88
2022/04/26 08:53:34;;;;;;;28.77;27.08;;;;;;;20.02;78.21;100890.16;4980491;28;20502;-88
2022/04/26 08:56:03;;;;;;;30.77;29.08;;;;;;;20.92;70.23;100897.91;4986304;28;20126;-90
2022/04/26 08:58:36;;;;;;;30.50;29.00;;;;;;;21.61;76.47;100901.06;4984139;28;20058;-88
2022/04/26 09:01:06;;;;;;;;;;;;;;;21.74;72.83;100892.34;4986032;28;20050;-90
2022/04/26 09:03:36;;;;;;;41.78;39.58;;;;;;;22.48;80.35;100879.84;4986391;28;19922;-92
2022/04/26 09:06:07;;;;;;;38.78;36.88;;;;;;;21.64;70.33;100895.09;4984564;28;20086;-92
2022/04/26 09:08:37;;;;;;;35.30;33.17;;;;;;;21.52;67.65;100887.31;4989872;28;20511;-91
2022/04/26 09:11:04;;;;;;;37.17;35.20;;;;;;;20.30;79.77;100880.00;4988363;28;20062;-94
2022/04/26 09:13:40;;;;;;;35.40;33.60;;;;;;;21.60;73.34;100883.22;4984532;28;20046;-93
2022/04/26 09:16:17;;;;;;;37.30;35.42;;;;;;;20.85;72.27;100880.34;4986606;28;20501;-92
2022/04/26 09:18:52;;;;;;;35.22;33.22;;;;;;;21.76;73.70;100873.97;4988522;28;20526;-90
2022/04/26 09:21:19;;;;;;;38.22;36.33;;;;;;;20.61;66.63;100874.69;4989154;28;20104;-92
2022/04/26 09:23:48;;;;;;;47.05;44.55;;;;;;;21.19;67.67;100878.69;4985600;28;20054;-92
2022/04/26 09:26:17;;;;;;;37.42;35.35;;;;;;;21.78;70.63;100879.91;4989343;28;20468;-93
2022/04/26 09:28:48;;;;;;;38.17;35.97;;;;;;;22.58;74.58;100871.63;4993704;28;20055;-90
2022/04/26 09:31:22;;;;;;;31.02;29.17;;;;;;;22.54;64.09;100872.47;4992146;28;20053;-91
2022/04/26 09:33:51;;;;;;;29.80;28.20;;;;;;;21.33;64.14;100876.25;4992479;28;20514;-91
2022/04/26 09:36:20;;;;;;;29.90;27.70;;;;;;;22.16;61.17;100878.41;4988205;28;20039;-92
2022/04/26 09:38:55;;;;;;;30.60;28.90;;;;;;;23.50;59.38;100875.38;4995411;28;20123;-92
2022/04/26 09:41:22;;;;;;;34.80;33.00;;;;;;;23.38;62.80;100875.78;4985192;28;20042;-91
2022/04/26 09:44:01;;;;;;;41.33;39.17;;;;;;;23.54;61.21;100865.56;4991949;28;20061;-91
2022/04/26 09:46:46;;;;;;;40.42;38.17;;;;;;;24.16;54.44;100869.16;4988376;28;20054;-91
2022/04/26 09:49:15;;;;;;;37.75;35.63;;;;;;;23.90;51.38;100867.88;4994950;28;20046;-91
2022/04/26 09:51:42;;;;;;;30.60;28.80;;;;;;;22.60;60.97;100877.59;4991063;28;20109;-90
2022/04/26 09:54:11;;;;;;;30.73;28.77;;;;;;;22.58;58.34;100874.34;4986320;28;20121;-90
2022/04/26 09:56:39;;;;;;;31.25;29.33;;;;;;;22.53;60.29;100866.25;4991071;28;20057;-91
2022/04/26 09:59:07;;;;;;;33.28;31.38;;;;;;;24.13;54.30;100860.78;4988129;28;20078;-92
2022/04/26 10:01:41;;;;;;;33.15;31.25;;;;;;;24.43;54.36;100856.84;4993338;28;20046;-90
2022/04/26 10:04:09;;;;;;;31.23;29.58;;;;;;;23.34;49.33;100857.69;4992209;28;20054;-91
2022/04/26 10:06:41;;;;;;;29.30;27.73;;;;;;;23.08;45.72;100849.81;4988023;28;20051;-90
2022/04/26 10:09:16;;;;;;;29.70;28.00;;;;;;;23.69;49.06;100854.59;4982705;28;20115;-91
2022/04/26 10:11:46;;;;;;;29.60;27.90;;;;;;;23.38;49.98;100851.41;4993824;28;20105;-91
2022/04/26 10:14:14;;;;;;;29.63;28.02;;;;;;;23.08;46.10;100855.25;4980894;28;20047;-92
2022/04/26 10:16:41;;;;;;;31.02;29.10;;;;;;;23.12;48.70;100840.06;4992523;28;20526;-93
2022/04/26 10:19:09;;;;;;;29.00;27.30;;;;;;;24.11;46.30;100844.78;4993840;28;20105;-91
2022/04/26 10:21:47;;;;;;;31.67;29.50;;;;;;;24.44;45.97;100837.53;4989645;28;20097;-91
2022/04/26 10:24:19;;;;;;;30.10;28.40;;;;;;;23.78;45.75;100843.91;4991086;28;20034;-91
2022/04/26 10:26:46;;;;;;;30.15;28.55;;;;;;;23.21;55.39;100843.75;4986756;28;20046;-90
2022/04/26 10:29:25;;;;;;;30.70;29.00;;;;;;;22.78;52.45;100837.34;4988049;28;20081;-91
2022/04/26 10:32:00;;;;;;;29.77;28.08;;;;;;;25.07;40.43;100838.09;4986911;28;20065;-90
2022/04/26 10:34:33;;;;;;;28.83;27.02;;;;;;;24.26;44.91;100840.25;4995326;28;20408;-93
2022/04/26 10:37:02;;;;;;;28.63;26.92;;;;;;;23.70;47.85;100839.94;4988059;28;20113;-91
2022/04/26 10:39:41;;;;;;;28.20;26.70;;;;;;;25.49;54.41;100841.69;4983137;28;20050;-93
2022/04/26 10:42:35;;;;;;;30.75;29.15;;;;;;;25.06;47.54;100844.66;4982769;28;20055;-90
2022/04/26 10:45:09;;;;;;;30.88;29.02;;;;;;;23.40;49.98;100846.50;4990800;28;20051;-90
2022/04/26 10:47:40;;;;;;;30.40;28.65;;;;;;;24.05;43.49;100839.75;4983667;28;20051;-90
2022/04/26 10:50:13;;;;;;;30.35;28.63;;;;;;;23.66;47.16;100841.59;4987393;28;20042;-90
2022/04/26 10:52:43;;;;;;;31.52;29.63;;;;;;;24.44;42.81;100834.03;4989414;28;20477;-90
2022/04/26 10:55:15;;;;;;;31.13;29.42;;;;;;;23.42;42.26;100843.50;4985823;28;20085;-90
2022/04/26 10:57:48;;;;;;;32.33;30.42;;;;;;;23.50;46.66;100851.00;4989408;28;20054;-91
2022/04/26 11:00:28;;;;;;;30.63;28.70;;;;;;;24.60;44.33;100851.69;4994191;28;20054;-90
2022/04/26 11:03:10;;;;;;;32.05;29.50;;;;;;;24.81;43.75;100844.00;4977076;28;20050;-91
2022/04/26 11:05:37;;;;;;;30.48;28.33;;;;;;;25.45;48.24;100843.41;4981699;28;20101;-90
2022/04/26 11:08:09;;;;;;;29.17;27.45;;;;;;;24.72;44.40;100842.25;4990091;28;20051;-91
2022/04/26 11:13:35;;;;;;;29.63;28.00;;;;;;;25.51;46.38;100840.28;4982432;28;20558;-93
2022/04/26 11:16:12;;;;;;;33.70;31.90;;;;;;;25.58;41.68;100837.94;4983574;28;20069;-92
2022/04/26 11:18:42;;;;;;;35.25;33.35;;;;;;;25.56;43.91;100836.63;4983058;28;20083;-92
2022/04/26 11:21:13;;;;;;;33.33;31.73;;;;;;;22.28;59.02;100839.38;4987029;28;20058;-91
2022/04/26 11:29:24;;;;;;;30.83;29.02;;;;;;;24.87;47.19;100833.84;4990201;28;20125;-92
2022/04/26 11:31:54;;;;;;;32.53;30.83;;;;;;;23.92;47.22;100835.84;4986382;28;20137;-92
2022/04/26 11:34:21;;;;;;;31.73;30.02;;;;;;;23.52;46.47;100840.69;4981040;28;20567;-92
2022/04/26 11:36:50;;;;;;;31.48;29.77;;;;;;;24.02;47.19;100835.72;4993092;28;20096;-93
2022/04/26 11:39:19;;;;;;;31.25;29.45;;;;;;;22.91;54.23;100842.13;4994985;28;20510;-92
2022/04/26 11:41:48;;;;;;;32.85;31.05;;;;;;;22.37;52.73;100835.00;4992576;28;20042;-91
2022/04/26 11:44:16;;;;;;;35.15;33.30;;;;;;;22.89;46.87;100840.78;4991705;28;20058;-93
2022/04/26 11:47:00;;;;;;;32.92;31.02;;;;;;;22.59;54.06;100842.66;4987271;28;20054;-93
2022/04/26 11:49:39;;;;;;;33.00;31.27;;;;;;;23.55;43.62;100835.47;4992952;28;20058;-92
2022/04/26 11:52:06;;;;;;;31.20;29.60;;;;;;;23.81;44.91;100831.66;4990219;28;20471;-92
2022/04/26 11:54:37;;;;;;;33.20;31.40;;;;;;;23.16;47.42;100826.72;4986810;28;20047;-92
2022/04/26 11:57:06;;;;;;;31.85;30.25;;;;;;;24.03;51.93;100829.19;4987847;28;20566;-93
2022/04/26 11:59:34;;;;;;;37.00;35.10;;;;;;;24.69;44.33;100830.09;4987154;28;20050;-92
2022/04/26 12:02:01;;;;;;;33.90;32.10;;;;;;;23.16;48.96;100822.13;4987757;28;20602;-92
2022/04/26 12:04:30;;;;;;;41.10;39.10;;;;;;;24.81;49.34;100816.03;4981699;28;20046;-92
2022/04/26 12:06:59;;;;;;;44.08;41.97;;;;;;;23.38;47.31;100812.66;4988996;28;20052;-89
2022/04/26 12:09:26;;;;;;;37.15;35.35;;;;;;;23.60;53.50;100810.22;4989364;28;20054;-90
2022/04/26 12:12:03;;;;;;;39.75;37.75;;;;;;;23.47;47.41;100813.63;4986688;28;20046;-93
2022/04/26 12:14:41;;;;;;;;;;;;;;;;;;;;;
2022/04/26 12:17:18;;;;;;;37.63;35.70;;;;;;;24.59;47.80;100811.25;4984928;28;20050;-90
2022/04/26 12:19:50;;;;;;;41.70;39.40;;;;;;;24.21;45.69;100806.69;4976458;28;20125;-90
2022/04/26 12:22:19;;;;;;;39.50;37.50;;;;;;;24.59;49.28;100811.25;4979819;28;20046;-92
2022/04/26 12:24:51;;;;;;;42.70;40.47;;;;;;;23.96;49.35;100809.75;4983706;28;20070;-91
2022/04/26 12:27:22;;;;;;;52.88;50.15;;;;;;;24.65;51.36;100796.47;4985573;28;20133;-90
2022/04/26 12:29:51;;;;;;;42.37;40.27;;;;;;;26.23;47.99;100790.56;4986754;28;20050;-90
2022/04/26 12:32:19;;;;;;;57.22;54.47;;;;;;;25.09;47.63;100795.94;4987658;28;20058;-91
2022/04/26 12:34:48;;;;;;;42.90;40.58;;;;;;;23.87;49.58;100787.91;4982002;28;20053;-91
2022/04/26 12:37:21;;;;;;;46.83;44.53;;;;;;;24.98;48.55;100791.81;4989055;28;20050;-91
2022/04/26 12:39:52;;;;;;;50.65;48.17;;;;;;;24.59;48.90;100787.63;4978537;28;20194;-91
2022/04/26 12:42:31;;;;;;;49.33;47.00;;;;;;;23.12;50.83;100791.28;4990285;28;20042;-90
2022/04/26 12:45:01;;;;;;;48.10;45.70;;;;;;;24.12;46.81;100786.75;4981937;28;20594;-91
2022/04/26 12:50:32;;;;;;;41.08;38.80;;;;;;;22.63;49.73;100781.44;4982608;28;20046;-91
2022/04/26 12:53:04;;;;;;;40.17;38.17;;;;;;;23.60;50.99;100769.56;4984120;28;20423;-90
2022/04/26 12:55:33;;;;;;;31.98;30.20;;;;;;;23.18;50.54;100775.75;4969056;28;20063;-91
2022/04/26 12:58:03;;;;;;;35.25;33.45;;;;;;;24.15;49.75;100766.34;4981762;28;20101;-91
2022/04/26 13:00:36;;;;;;;37.65;35.65;;;;;;;24.27;53.10;100771.28;4983182;28;20077;-91
2022/04/26 13:03:03;;;;;;;;;;;;;;;23.05;58.19;100766.44;4984056;28;20046;-92
2022/04/26 13:05:36;;;;;;;37.83;35.92;;;;;;;24.06;53.29;100768.13;4981814;28;19925;-90
2022/04/26 13:08:03;;;;;;;36.28;34.38;;;;;;;23.35;51.50;100762.56;4981448;28;20134;-91
2022/04/26 13:10:33;;;;;;;32.25;30.50;;;;;;;23.29;53.44;100761.00;4984135;28;20058;-90
2022/04/26 13:12:59;;;;;;;37.60;35.70;;;;;;;22.58;58.01;100760.66;4978760;28;20047;-92
2022/04/26 13:15:27;;;;;;;31.83;29.75;;;;;;;23.63;52.86;100766.28;4990471;28;20039;-91
2022/04/26 13:18:00;;;;;;;29.73;27.75;;;;;;;24.36;52.40;100762.22;4990036;28;20046;-90
2022/04/26 13:20:28;;;;;;;32.35;30.30;;;;;;;24.39;53.52;100766.25;4989075;28;20069;-91
2022/04/26 13:22:55;;;;;;;31.55;29.65;;;;;;;24.50;50.78;100766.88;4987278;28;20047;-90
2022/04/26 13:25:22;;;;;;;31.67;29.67;;;;;;;23.75;54.97;100765.84;4985434;28;20120;-90
2022/04/26 13:27:49;;;;;;;31.27;29.17;;;;;;;23.90;53.86;100760.19;4988164;28;20050;-91
2022/04/26 13:30:19;;;;;;;32.65;30.70;;;;;;;24.30;56.04;100751.72;4987364;28;20051;-90
2022/04/26 13:32:47;;;;;;;32.70;30.60;;;;;;;24.36;55.83;100748.63;4973316;28;20047;-91
2022/04/26 13:35:17;;;;;;;33.75;31.63;;;;;;;24.04;49.99;100740.47;4975747;28;20502;-91
2022/04/26 13:37:47;;;;;;;33.70;31.73;;;;;;;24.08;52.01;100744.22;4987815;28;20046;-90
2022/04/26 13:40:16;;;;;;;32.15;30.20;;;;;;;24.28;51.02;100754.72;4986176;28;20062;-90
2022/04/26 13:42:43;;;;;;;29.90;28.10;;;;;;;23.83;51.05;100739.97;4990758;28;20511;-90
2022/04/26 13:45:10;;;;;;;30.92;29.10;;;;;;;24.37;51.17;100741.28;4985233;28;20137;-90
2022/04/26 13:47:38;;;;;;;30.65;28.73;;;;;;;24.16;53.17;100741.63;4985353;28;20047;-90
2022/04/26 13:50:08;;;;;;;32.38;30.35;;;;;;;23.46;55.00;100742.38;4989605;28;20053;-91
2022/04/26 13:52:38;;;;;;;32.97;31.08;;;;;;;23.60;53.39;100741.63;4984369;28;20079;-91
2022/04/26 13:55:05;;;;;;;32.75;30.75;;;;;;;23.96;51.39;100741.94;4981235;28;20039;-90
2022/04/26 13:57:32;;;;;;;31.33;29.42;;;;;;;23.89;51.71;100736.09;4984820;28;20050;-91
2022/04/26 13:59:59;;;;;;;31.48;29.65;;;;;;;24.30;51.74;100733.53;4986124;28;20050;-90
2022/04/26 14:02:26;;;;;;;30.67;28.90;;;;;;;24.64;54.44;100733.22;4974072;28;20050;-91
2022/04/26 14:04:53;;;;;;;31.38;29.65;;;;;;;24.34;53.47;100739.19;4987317;28;20058;-90
2022/04/26 14:07:23;;;;;;;32.83;31.02;;;;;;;24.36;52.95;100734.25;4987313;28;20053;-91
2022/04/26 14:09:55;;;;;;;33.25;31.45;;;;;;;23.73;55.15;100724.69;4988662;28;20504;-90
2022/04/26 14:12:22;;;;;;;36.58;34.47;;;;;;;24.16;57.11;100724.53;4992960;28;20132;-91
2022/04/26 14:23:06;;;;;;;30.75;28.98;;;;;;;23.50;57.51;100737.97;4982776;28;20116;-90
2022/04/26 14:25:34;;;;;;;29.80;27.90;;;;;;;24.00;57.00;100738.34;4981500;28;20054;-90
2022/04/26 14:28:01;;;;;;;30.30;28.50;;;;;;;24.29;53.42;100734.63;4986625;28;20117;-91
2022/04/26 14:30:28;;;;;;;32.58;30.77;;;;;;;23.69;54.47;100732.59;4985915;28;20043;-91
2022/04/26 14:32:55;;;;;;;31.63;29.75;;;;;;;24.40;52.81;100730.66;4987629;28;20104;-91
2022/04/26 14:35:22;;;;;;;30.45;28.67;;;;;;;24.72;50.67;100733.63;4988723;28;20050;-91
2022/04/26 14:37:53;;;;;;;29.85;28.17;;;;;;;24.80;50.37;100728.31;4988890;28;20423;-92
2022/04/26 14:40:23;;;;;;;28.83;27.13;;;;;;;24.78;53.70;100732.44;4979534;28;20104;-91
2022/04/26 14:42:54;;;;;;;29.50;27.70;;;;;;;24.53;49.61;100729.09;4988633;28;20051;-93
2022/04/26 14:45:21;;;;;;;32.60;30.70;;;;;;;24.46;50.42;100720.53;4993470;28;20050;-92
2022/04/26 14:47:48;;;;;;;29.60;27.52;;;;;;;24.79;50.79;100731.34;4985822;28;20078;-93
2022/04/26 14:50:17;;;;;;;30.60;28.63;;;;;;;25.08;49.65;100720.16;4982789;28;20196;-92
2022/04/26 14:52:46;;;;;;;30.08;28.17;;;;;;;25.10;50.80;100721.47;4993790;28;20096;-91
2022/04/26 14:55:13;;;;;;;30.08;28.17;;;;;;;25.16;52.13;100722.19;4991636;28;20046;-92
2022/04/26 14:57:40;;;;;;;29.17;27.48;;;;;;;25.30;52.00;100723.00;4985071;28;20489;-91
2022/04/26 15:00:10;;;;;;;30.27;28.38;;;;;;;25.22;53.34;100723.69;4987168;28;20081;-91
2022/04/26 15:02:40;;;;;;;30.27;28.08;;;;;;;24.78;50.72;100732.44;4987325;28;20076;-91
2022/04/26 15:05:09;;;;;;;28.80;27.00;;;;;;;25.07;50.57;100724.78;4989900;28;20046;-92
2022/04/26 15:10:24;;;;;;;31.50;29.25;;;;;;;24.91;49.01;100728.94;4984745;28;20049;-92
2022/04/26 15:18:24;;;;;;;28.70;26.90;;;;;;;23.50;49.59;100724.41;4993336;28;20190;-91
2022/04/26 15:20:52;;;;;;;54.55;49.75;;;;;;;23.85;49.82;100729.66;4984691;28;20129;-91
2022/04/26 15:23:19;;;;;;;59.13;53.30;;;;;;;24.27;50.57;100723.28;4985013;28;20051;-90
2022/04/26 15:25:50;;;;;;;63.60;57.30;;;;;;;23.98;50.95;100728.91;4987344;28;20046;-92
2022/04/26 15:28:18;;;;;;;64.70;58.35;;;;;;;24.27;50.85;100727.88;4986479;28;20130;-91
2022/04/26 15:30:48;;;;;;;67.35;60.70;;;;;;;24.13;50.20;100728.66;4984122;28;20496;-91
2022/04/26 15:33:15;;;;;;;62.83;56.50;;;;;;;23.77;50.75;100726.50;4985388;28;20141;-91